sensor_id;sensor_type;location;lat;lon;timestamp;temperature;humidity
12977;DHT22;6553;48.412;9.514;2023-11-19T00:00:43;19.30;69.20
12977;DHT22;6553;48.412;9.514;2023-11-19T00:03:09;19.30;69.20
12977;DHT22;6553;48.412;9.514;2023-11-19T00:05:36;19.30;69.20
12977;DHT22;6553;48.412;9.514;2023-11-19T00:08:02;19.30;69.20
12977;DHT22;6553;48.412;9.514;2023-11-19T00:10:28;19.30;69.30
12977;DHT22;6553;48.412;9.514;2023-11-19T00:12:53;19.30;69.20
12977;DHT22;6553;48.412;9.514;2023-11-19T00:15:19;19.30;69.20
12977;DHT22;6553;48.412;9.514;2023-11-19T00:17:46;19.30;69.30
12977;DHT22;6553;48.412;9.514;2023-11-19T00:20:17;19.30;69.20
12977;DHT22;6553;48.412;9.514;2023-11-19T00:22:45;19.30;69.30
12977;DHT22;6553;48.412;9.514;2023-11-19T00:25:14;19.30;69.20
12977;DHT22;6553;48.412;9.514;2023-11-19T00:27:39;19.30;69.30
12977;DHT22;6553;48.412;9.514;2023-11-19T00:30:06;19.30;69.20
12977;DHT22;6553;48.412;9.514;2023-11-19T00:32:33;19.30;69.30
12977;DHT22;6553;48.412;9.514;2023-11-19T00:34:59;19.30;69.20
12977;DHT22;6553;48.412;9.514;2023-11-19T00:37:25;19.30;69.20
12977;DHT22;6553;48.412;9.514;2023-11-19T00:39:52;19.30;69.40
12977;DHT22;6553;48.412;9.514;2023-11-19T00:42:18;19.30;69.30
12977;DHT22;6553;48.412;9.514;2023-11-19T00:44:44;19.30;69.40
12977;DHT22;6553;48.412;9.514;2023-11-19T00:47:11;19.30;69.30
12977;DHT22;6553;48.412;9.514;2023-11-19T00:49:37;19.30;69.30
12977;DHT22;6553;48.412;9.514;2023-11-19T00:52:03;19.30;69.30
12977;DHT22;6553;48.412;9.514;2023-11-19T00:54:29;19.30;69.30
12977;DHT22;6553;48.412;9.514;2023-11-19T00:56:55;19.30;69.30
12977;DHT22;6553;48.412;9.514;2023-11-19T00:59:21;19.30;69.40
12977;DHT22;6553;48.412;9.514;2023-11-19T01:01:47;19.30;69.40
12977;DHT22;6553;48.412;9.514;2023-11-19T01:04:16;19.30;69.40
12977;DHT22;6553;48.412;9.514;2023-11-19T01:06:42;19.30;69.40
12977;DHT22;6553;48.412;9.514;2023-11-19T01:09:08;19.30;69.40
12977;DHT22;6553;48.412;9.514;2023-11-19T01:11:34;19.30;69.40
12977;DHT22;6553;48.412;9.514;2023-11-19T01:14:01;19.30;69.40
12977;DHT22;6553;48.412;9.514;2023-11-19T01:16:27;19.30;69.40
12977;DHT22;6553;48.412;9.514;2023-11-19T01:18:53;19.30;69.40
12977;DHT22;6553;48.412;9.514;2023-11-19T01:21:20;19.30;69.40
12977;DHT22;6553;48.412;9.514;2023-11-19T01:23:45;19.30;69.40
12977;DHT22;6553;48.412;9.514;2023-11-19T01:26:14;19.30;69.50
12977;DHT22;6553;48.412;9.514;2023-11-19T01:28:40;19.30;69.50
12977;DHT22;6553;48.412;9.514;2023-11-19T01:31:10;19.30;69.50
12977;DHT22;6553;48.412;9.514;2023-11-19T01:33:36;19.30;69.40
12977;DHT22;6553;48.412;9.514;2023-11-19T01:36:03;19.30;69.50
12977;DHT22;6553;48.412;9.514;2023-11-19T01:38:30;19.30;69.50
12977;DHT22;6553;48.412;9.514;2023-11-19T01:40:57;19.30;69.50
12977;DHT22;6553;48.412;9.514;2023-11-19T01:46:04;19.30;69.50
12977;DHT22;6553;48.412;9.514;2023-11-19T01:48:32;19.30;69.50
12977;DHT22;6553;48.412;9.514;2023-11-19T01:51:00;19.30;69.60
12977;DHT22;6553;48.412;9.514;2023-11-19T01:53:27;19.30;69.60
12977;DHT22;6553;48.412;9.514;2023-11-19T01:55:54;19.30;69.60
12977;DHT22;6553;48.412;9.514;2023-11-19T01:58:23;19.30;69.60
12977;DHT22;6553;48.412;9.514;2023-11-19T02:00:49;19.30;69.60
12977;DHT22;6553;48.412;9.514;2023-11-19T02:03:16;19.30;69.50
12977;DHT22;6553;48.412;9.514;2023-11-19T02:05:42;19.30;69.60
12977;DHT22;6553;48.412;9.514;2023-11-19T02:08:08;19.30;69.60
12977;DHT22;6553;48.412;9.514;2023-11-19T02:10:34;19.30;69.60
12977;DHT22;6553;48.412;9.514;2023-11-19T02:13:01;19.30;69.60
12977;DHT22;6553;48.412;9.514;2023-11-19T02:15:28;19.30;69.60
12977;DHT22;6553;48.412;9.514;2023-11-19T02:17:53;19.30;69.60
12977;DHT22;6553;48.412;9.514;2023-11-19T02:20:20;19.30;69.60
12977;DHT22;6553;48.412;9.514;2023-11-19T02:22:46;19.30;69.60
12977;DHT22;6553;48.412;9.514;2023-11-19T02:25:30;19.30;69.60
12977;DHT22;6553;48.412;9.514;2023-11-19T02:28:02;19.30;69.70
12977;DHT22;6553;48.412;9.514;2023-11-19T02:30:30;19.40;69.80
12977;DHT22;6553;48.412;9.514;2023-11-19T02:32:58;19.30;69.70
12977;DHT22;6553;48.412;9.514;2023-11-19T02:35:26;19.30;69.70
12977;DHT22;6553;48.412;9.514;2023-11-19T02:37:56;19.30;69.70
12977;DHT22;6553;48.412;9.514;2023-11-19T02:40:23;19.30;69.70
12977;DHT22;6553;48.412;9.514;2023-11-19T02:42:50;19.30;69.70
12977;DHT22;6553;48.412;9.514;2023-11-19T02:45:17;19.30;69.70
12977;DHT22;6553;48.412;9.514;2023-11-19T02:47:43;19.30;69.70
12977;DHT22;6553;48.412;9.514;2023-11-19T02:50:13;19.30;69.80
12977;DHT22;6553;48.412;9.514;2023-11-19T02:52:42;19.30;69.70
12977;DHT22;6553;48.412;9.514;2023-11-19T02:55:10;19.30;69.70
12977;DHT22;6553;48.412;9.514;2023-11-19T02:57:39;19.30;69.80
12977;DHT22;6553;48.412;9.514;2023-11-19T03:00:18;19.30;69.80
12977;DHT22;6553;48.412;9.514;2023-11-19T03:02:49;19.30;69.80
12977;DHT22;6553;48.412;9.514;2023-11-19T03:05:24;19.30;69.80
12977;DHT22;6553;48.412;9.514;2023-11-19T03:07:52;19.30;69.80
12977;DHT22;6553;48.412;9.514;2023-11-19T03:10:18;19.30;69.80
12977;DHT22;6553;48.412;9.514;2023-11-19T03:12:44;19.30;69.80
12977;DHT22;6553;48.412;9.514;2023-11-19T03:15:11;19.30;69.80
12977;DHT22;6553;48.412;9.514;2023-11-19T03:17:41;19.30;69.80
12977;DHT22;6553;48.412;9.514;2023-11-19T03:20:10;19.30;69.80
12977;DHT22;6553;48.412;9.514;2023-11-19T03:22:43;19.30;69.80
12977;DHT22;6553;48.412;9.514;2023-11-19T03:25:10;19.30;69.80
12977;DHT22;6553;48.412;9.514;2023-11-19T03:27:39;19.30;69.80
12977;DHT22;6553;48.412;9.514;2023-11-19T03:30:08;19.40;69.90
12977;DHT22;6553;48.412;9.514;2023-11-19T03:32:37;19.30;69.80
12977;DHT22;6553;48.412;9.514;2023-11-19T03:35:05;19.40;69.90
12977;DHT22;6553;48.412;9.514;2023-11-19T03:37:34;19.30;69.80
12977;DHT22;6553;48.412;9.514;2023-11-19T03:40:01;19.30;69.80
12977;DHT22;6553;48.412;9.514;2023-11-19T03:42:27;19.30;69.80
12977;DHT22;6553;48.412;9.514;2023-11-19T03:44:53;19.30;69.80
12977;DHT22;6553;48.412;9.514;2023-11-19T03:47:20;19.40;69.90
12977;DHT22;6553;48.412;9.514;2023-11-19T03:49:50;19.30;69.80
12977;DHT22;6553;48.412;9.514;2023-11-19T03:52:16;19.40;70.00
12977;DHT22;6553;48.412;9.514;2023-11-19T03:54:43;19.40;70.00
12977;DHT22;6553;48.412;9.514;2023-11-19T03:57:09;19.30;69.90
12977;DHT22;6553;48.412;9.514;2023-11-19T03:59:39;19.30;69.90
12977;DHT22;6553;48.412;9.514;2023-11-19T04:02:05;19.40;70.00
12977;DHT22;6553;48.412;9.514;2023-11-19T04:04:31;19.40;69.90
12977;DHT22;6553;48.412;9.514;2023-11-19T04:06:58;19.40;70.00
12977;DHT22;6553;48.412;9.514;2023-11-19T04:09:26;19.40;70.00
12977;DHT22;6553;48.412;9.514;2023-11-19T04:11:52;19.40;70.00
12977;DHT22;6553;48.412;9.514;2023-11-19T04:14:18;19.40;70.00
12977;DHT22;6553;48.412;9.514;2023-11-19T04:16:46;19.40;70.00
12977;DHT22;6553;48.412;9.514;2023-11-19T04:19:12;19.40;70.00
12977;DHT22;6553;48.412;9.514;2023-11-19T04:21:41;19.40;70.00
12977;DHT22;6553;48.412;9.514;2023-11-19T04:24:08;19.40;70.10
12977;DHT22;6553;48.412;9.514;2023-11-19T04:26:43;19.40;70.10
12977;DHT22;6553;48.412;9.514;2023-11-19T04:29:14;19.40;70.10
12977;DHT22;6553;48.412;9.514;2023-11-19T04:31:41;19.40;70.10
12977;DHT22;6553;48.412;9.514;2023-11-19T04:34:07;19.40;70.20
12977;DHT22;6553;48.412;9.514;2023-11-19T04:36:34;19.40;70.20
12977;DHT22;6553;48.412;9.514;2023-11-19T04:39:00;19.40;70.20
12977;DHT22;6553;48.412;9.514;2023-11-19T04:41:27;19.40;70.20
12977;DHT22;6553;48.412;9.514;2023-11-19T04:43:56;19.40;70.20
12977;DHT22;6553;48.412;9.514;2023-11-19T04:46:22;19.40;70.30
12977;DHT22;6553;48.412;9.514;2023-11-19T04:48:49;19.40;70.30
12977;DHT22;6553;48.412;9.514;2023-11-19T04:51:15;19.40;70.30
12977;DHT22;6553;48.412;9.514;2023-11-19T04:53:41;19.40;70.30
12977;DHT22;6553;48.412;9.514;2023-11-19T04:56:11;19.40;70.40
12977;DHT22;6553;48.412;9.514;2023-11-19T04:58:37;19.40;70.40
12977;DHT22;6553;48.412;9.514;2023-11-19T05:01:03;19.40;70.40
12977;DHT22;6553;48.412;9.514;2023-11-19T05:03:30;19.40;70.40
12977;DHT22;6553;48.412;9.514;2023-11-19T05:05:57;19.40;70.40
12977;DHT22;6553;48.412;9.514;2023-11-19T05:08:23;19.40;70.40
12977;DHT22;6553;48.412;9.514;2023-11-19T05:10:49;19.40;70.50
12977;DHT22;6553;48.412;9.514;2023-11-19T05:13:15;19.40;70.50
12977;DHT22;6553;48.412;9.514;2023-11-19T05:15:41;19.40;70.50
12977;DHT22;6553;48.412;9.514;2023-11-19T05:18:06;19.40;70.50
12977;DHT22;6553;48.412;9.514;2023-11-19T05:20:32;19.40;70.50
12977;DHT22;6553;48.412;9.514;2023-11-19T05:22:59;19.40;70.50
12977;DHT22;6553;48.412;9.514;2023-11-19T05:25:28;19.40;70.60
12977;DHT22;6553;48.412;9.514;2023-11-19T05:27:55;19.40;70.60
12977;DHT22;6553;48.412;9.514;2023-11-19T05:30:21;19.40;70.60
12977;DHT22;6553;48.412;9.514;2023-11-19T05:32:46;19.40;70.60
12977;DHT22;6553;48.412;9.514;2023-11-19T05:35:12;19.40;70.60
12977;DHT22;6553;48.412;9.514;2023-11-19T05:37:38;19.40;70.60
12977;DHT22;6553;48.412;9.514;2023-11-19T05:40:05;19.40;70.70
12977;DHT22;6553;48.412;9.514;2023-11-19T05:42:40;19.40;70.70
12977;DHT22;6553;48.412;9.514;2023-11-19T05:45:07;19.40;70.70
12977;DHT22;6553;48.412;9.514;2023-11-19T05:47:34;19.40;70.70
12977;DHT22;6553;48.412;9.514;2023-11-19T05:49:59;19.40;70.70
12977;DHT22;6553;48.412;9.514;2023-11-19T05:52:25;19.40;70.70
12977;DHT22;6553;48.412;9.514;2023-11-19T05:54:51;19.40;70.80
12977;DHT22;6553;48.412;9.514;2023-11-19T05:57:17;19.40;70.70
12977;DHT22;6553;48.412;9.514;2023-11-19T05:59:49;19.50;70.90
12977;DHT22;6553;48.412;9.514;2023-11-19T06:02:15;19.40;70.80
12977;DHT22;6553;48.412;9.514;2023-11-19T06:04:41;19.50;70.90
12977;DHT22;6553;48.412;9.514;2023-11-19T06:07:09;19.40;70.80
12977;DHT22;6553;48.412;9.514;2023-11-19T06:09:35;19.40;70.80
12977;DHT22;6553;48.412;9.514;2023-11-19T06:12:01;19.40;71.70
12977;DHT22;6553;48.412;9.514;2023-11-19T06:14:31;19.50;71.00
12977;DHT22;6553;48.412;9.514;2023-11-19T06:16:57;19.50;71.00
12977;DHT22;6553;48.412;9.514;2023-11-19T06:19:23;19.40;70.80
12977;DHT22;6553;48.412;9.514;2023-11-19T06:21:50;19.50;71.00
12977;DHT22;6553;48.412;9.514;2023-11-19T06:24:16;19.40;70.90
12977;DHT22;6553;48.412;9.514;2023-11-19T06:26:42;19.50;71.00
12977;DHT22;6553;48.412;9.514;2023-11-19T06:29:08;19.50;71.00
12977;DHT22;6553;48.412;9.514;2023-11-19T06:31:34;19.50;71.00
12977;DHT22;6553;48.412;9.514;2023-11-19T06:33:59;19.40;70.90
12977;DHT22;6553;48.412;9.514;2023-11-19T06:36:25;19.50;71.10
12977;DHT22;6553;48.412;9.514;2023-11-19T06:38:52;19.50;71.00
12977;DHT22;6553;48.412;9.514;2023-11-19T06:41:18;19.50;71.10
12977;DHT22;6553;48.412;9.514;2023-11-19T06:43:43;19.50;71.10
12977;DHT22;6553;48.412;9.514;2023-11-19T06:46:16;19.50;71.10
12977;DHT22;6553;48.412;9.514;2023-11-19T06:48:42;19.50;71.10
12977;DHT22;6553;48.412;9.514;2023-11-19T06:51:10;19.50;71.10
12977;DHT22;6553;48.412;9.514;2023-11-19T06:53:36;19.50;71.10
12977;DHT22;6553;48.412;9.514;2023-11-19T06:56:02;19.50;71.10
12977;DHT22;6553;48.412;9.514;2023-11-19T06:58:36;19.50;71.20
12977;DHT22;6553;48.412;9.514;2023-11-19T07:01:02;19.40;71.10
12977;DHT22;6553;48.412;9.514;2023-11-19T07:03:28;19.40;71.10
12977;DHT22;6553;48.412;9.514;2023-11-19T07:05:53;19.50;71.20
12977;DHT22;6553;48.412;9.514;2023-11-19T07:08:21;19.50;71.20
12977;DHT22;6553;48.412;9.514;2023-11-19T07:10:46;19.50;71.20
12977;DHT22;6553;48.412;9.514;2023-11-19T07:13:12;19.50;71.30
12977;DHT22;6553;48.412;9.514;2023-11-19T07:15:38;19.50;71.20
12977;DHT22;6553;48.412;9.514;2023-11-19T07:18:04;19.50;71.20
12977;DHT22;6553;48.412;9.514;2023-11-19T07:20:30;19.40;71.10
12977;DHT22;6553;48.412;9.514;2023-11-19T07:22:56;19.50;71.30
12977;DHT22;6553;48.412;9.514;2023-11-19T07:25:22;19.50;71.30
12977;DHT22;6553;48.412;9.514;2023-11-19T07:27:48;19.50;71.30
12977;DHT22;6553;48.412;9.514;2023-11-19T07:30:14;19.50;71.30
12977;DHT22;6553;48.412;9.514;2023-11-19T07:32:40;19.50;71.30
12977;DHT22;6553;48.412;9.514;2023-11-19T07:35:06;19.50;71.30
12977;DHT22;6553;48.412;9.514;2023-11-19T07:37:32;19.50;71.40
12977;DHT22;6553;48.412;9.514;2023-11-19T07:39:58;19.50;71.30
12977;DHT22;6553;48.412;9.514;2023-11-19T07:42:24;19.50;71.40
12977;DHT22;6553;48.412;9.514;2023-11-19T07:44:49;19.50;71.40
12977;DHT22;6553;48.412;9.514;2023-11-19T07:47:15;19.50;71.40
12977;DHT22;6553;48.412;9.514;2023-11-19T07:49:41;19.50;71.40
12977;DHT22;6553;48.412;9.514;2023-11-19T07:52:09;19.50;71.40
12977;DHT22;6553;48.412;9.514;2023-11-19T07:54:35;19.50;71.50
12977;DHT22;6553;48.412;9.514;2023-11-19T07:57:00;19.50;71.40
12977;DHT22;6553;48.412;9.514;2023-11-19T07:59:26;19.50;71.50
12977;DHT22;6553;48.412;9.514;2023-11-19T08:01:52;19.50;71.50
12977;DHT22;6553;48.412;9.514;2023-11-19T08:04:18;19.50;71.50
12977;DHT22;6553;48.412;9.514;2023-11-19T08:06:43;19.50;71.50
12977;DHT22;6553;48.412;9.514;2023-11-19T08:09:10;19.50;71.50
12977;DHT22;6553;48.412;9.514;2023-11-19T08:11:40;19.50;71.50
12977;DHT22;6553;48.412;9.514;2023-11-19T08:14:06;19.50;71.50
12977;DHT22;6553;48.412;9.514;2023-11-19T08:16:32;19.50;71.60
12977;DHT22;6553;48.412;9.514;2023-11-19T08:18:58;19.50;71.60
12977;DHT22;6553;48.412;9.514;2023-11-19T08:21:24;19.50;71.60
12977;DHT22;6553;48.412;9.514;2023-11-19T08:23:49;19.50;71.60
12977;DHT22;6553;48.412;9.514;2023-11-19T08:26:15;19.50;71.70
12977;DHT22;6553;48.412;9.514;2023-11-19T08:28:41;19.50;71.60
12977;DHT22;6553;48.412;9.514;2023-11-19T08:31:07;19.50;71.60
12977;DHT22;6553;48.412;9.514;2023-11-19T08:33:33;19.50;71.70
12977;DHT22;6553;48.412;9.514;2023-11-19T08:35:58;19.50;71.70
12977;DHT22;6553;48.412;9.514;2023-11-19T08:38:24;19.50;71.70
12977;DHT22;6553;48.412;9.514;2023-11-19T08:40:51;19.50;71.70
12977;DHT22;6553;48.412;9.514;2023-11-19T08:43:17;19.50;71.70
12977;DHT22;6553;48.412;9.514;2023-11-19T08:45:43;19.50;71.70
12977;DHT22;6553;48.412;9.514;2023-11-19T08:48:09;19.50;71.80
12977;DHT22;6553;48.412;9.514;2023-11-19T08:50:34;19.50;71.80
12977;DHT22;6553;48.412;9.514;2023-11-19T08:53:00;19.50;71.80
12977;DHT22;6553;48.412;9.514;2023-11-19T08:55:26;19.50;71.80
12977;DHT22;6553;48.412;9.514;2023-11-19T08:57:52;19.50;71.80
12977;DHT22;6553;48.412;9.514;2023-11-19T09:00:18;19.60;72.00
12977;DHT22;6553;48.412;9.514;2023-11-19T09:02:44;19.50;71.80
12977;DHT22;6553;48.412;9.514;2023-11-19T09:05:09;19.50;71.90
12977;DHT22;6553;48.412;9.514;2023-11-19T09:07:35;19.50;71.80
12977;DHT22;6553;48.412;9.514;2023-11-19T09:10:01;19.60;72.00
12977;DHT22;6553;48.412;9.514;2023-11-19T09:12:27;19.60;72.00
12977;DHT22;6553;48.412;9.514;2023-11-19T09:14:52;19.60;72.00
12977;DHT22;6553;48.412;9.514;2023-11-19T09:17:18;19.60;72.00
12977;DHT22;6553;48.412;9.514;2023-11-19T09:19:44;19.60;72.00
12977;DHT22;6553;48.412;9.514;2023-11-19T09:22:10;19.60;72.00
12977;DHT22;6553;48.412;9.514;2023-11-19T09:24:36;19.60;71.90
12977;DHT22;6553;48.412;9.514;2023-11-19T09:27:01;19.60;71.90
12977;DHT22;6553;48.412;9.514;2023-11-19T09:29:27;19.60;72.00
12977;DHT22;6553;48.412;9.514;2023-11-19T09:31:53;19.60;72.00
12977;DHT22;6553;48.412;9.514;2023-11-19T09:34:18;19.60;72.00
12977;DHT22;6553;48.412;9.514;2023-11-19T09:36:44;19.60;72.00
12977;DHT22;6553;48.412;9.514;2023-11-19T09:39:11;19.60;72.10
12977;DHT22;6553;48.412;9.514;2023-11-19T09:41:40;19.60;72.10
12977;DHT22;6553;48.412;9.514;2023-11-19T09:44:08;19.60;72.10
12977;DHT22;6553;48.412;9.514;2023-11-19T09:46:35;19.60;72.10
12977;DHT22;6553;48.412;9.514;2023-11-19T09:49:02;19.60;72.20
12977;DHT22;6553;48.412;9.514;2023-11-19T09:51:30;19.60;72.20
12977;DHT22;6553;48.412;9.514;2023-11-19T09:53:56;19.60;72.20
12977;DHT22;6553;48.412;9.514;2023-11-19T09:56:22;19.60;72.20
12977;DHT22;6553;48.412;9.514;2023-11-19T09:58:48;19.60;72.10
12977;DHT22;6553;48.412;9.514;2023-11-19T10:01:14;19.60;72.20
12977;DHT22;6553;48.412;9.514;2023-11-19T10:03:41;19.60;72.20
12977;DHT22;6553;48.412;9.514;2023-11-19T10:06:09;19.60;72.10
12977;DHT22;6553;48.412;9.514;2023-11-19T10:08:40;19.60;72.20
12977;DHT22;6553;48.412;9.514;2023-11-19T10:11:08;19.60;72.30
12977;DHT22;6553;48.412;9.514;2023-11-19T10:13:36;19.60;72.20
12977;DHT22;6553;48.412;9.514;2023-11-19T10:16:08;19.70;72.40
12977;DHT22;6553;48.412;9.514;2023-11-19T10:18:37;19.60;72.30
12977;DHT22;6553;48.412;9.514;2023-11-19T10:21:07;19.60;72.30
12977;DHT22;6553;48.412;9.514;2023-11-19T10:23:49;19.60;72.40
12977;DHT22;6553;48.412;9.514;2023-11-19T10:26:26;19.70;72.60
12977;DHT22;6553;48.412;9.514;2023-11-19T10:28:53;19.70;72.50
12977;DHT22;6553;48.412;9.514;2023-11-19T10:31:20;19.70;72.50
12977;DHT22;6553;48.412;9.514;2023-11-19T10:33:53;19.70;72.60
12977;DHT22;6553;48.412;9.514;2023-11-19T10:36:19;19.70;72.60
12977;DHT22;6553;48.412;9.514;2023-11-19T10:38:57;19.70;72.60
12977;DHT22;6553;48.412;9.514;2023-11-19T10:41:31;19.70;72.60
12977;DHT22;6553;48.412;9.514;2023-11-19T10:43:58;19.70;72.60
12977;DHT22;6553;48.412;9.514;2023-11-19T10:46:45;19.70;72.60
12977;DHT22;6553;48.412;9.514;2023-11-19T10:49:10;19.70;72.60
12977;DHT22;6553;48.412;9.514;2023-11-19T10:51:36;19.70;72.60
12977;DHT22;6553;48.412;9.514;2023-11-19T10:54:13;19.70;72.60
12977;DHT22;6553;48.412;9.514;2023-11-19T10:56:44;19.70;72.60
12977;DHT22;6553;48.412;9.514;2023-11-19T10:59:20;19.70;72.60
12977;DHT22;6553;48.412;9.514;2023-11-19T11:01:48;19.70;72.60
12977;DHT22;6553;48.412;9.514;2023-11-19T11:04:25;19.70;72.60
12977;DHT22;6553;48.412;9.514;2023-11-19T11:06:54;19.70;72.60
12977;DHT22;6553;48.412;9.514;2023-11-19T11:09:21;19.70;72.60
12977;DHT22;6553;48.412;9.514;2023-11-19T11:11:50;19.70;72.60
12977;DHT22;6553;48.412;9.514;2023-11-19T11:14:18;19.70;72.60
12977;DHT22;6553;48.412;9.514;2023-11-19T11:16:48;19.80;72.70
12977;DHT22;6553;48.412;9.514;2023-11-19T11:19:18;19.70;72.60
12977;DHT22;6553;48.412;9.514;2023-11-19T11:21:49;19.70;72.60
12977;DHT22;6553;48.412;9.514;2023-11-19T11:36:25;19.70;72.60
12977;DHT22;6553;48.412;9.514;2023-11-19T11:38:52;19.70;72.60
12977;DHT22;6553;48.412;9.514;2023-11-19T11:41:23;19.70;72.60
12977;DHT22;6553;48.412;9.514;2023-11-19T11:43:54;19.70;72.60
12977;DHT22;6553;48.412;9.514;2023-11-19T11:49:02;19.70;72.60
12977;DHT22;6553;48.412;9.514;2023-11-19T11:57:11;19.70;72.60
12977;DHT22;6553;48.412;9.514;2023-11-19T12:02:12;19.80;72.70
12977;DHT22;6553;48.412;9.514;2023-11-19T12:04:40;19.80;72.70
12977;DHT22;6553;48.412;9.514;2023-11-19T12:07:14;19.80;72.70
12977;DHT22;6553;48.412;9.514;2023-11-19T12:09:46;19.80;72.90
12977;DHT22;6553;48.412;9.514;2023-11-19T12:15:00;19.80;72.90
12977;DHT22;6553;48.412;9.514;2023-11-19T12:17:48;19.80;73.00
12977;DHT22;6553;48.412;9.514;2023-11-19T12:20:16;19.80;73.00
12977;DHT22;6553;48.412;9.514;2023-11-19T12:22:45;19.70;72.90
12977;DHT22;6553;48.412;9.514;2023-11-19T12:25:13;19.80;73.90
12977;DHT22;6553;48.412;9.514;2023-11-19T12:27:51;19.80;73.10
12977;DHT22;6553;48.412;9.514;2023-11-19T12:30:22;19.70;73.10
12977;DHT22;6553;48.412;9.514;2023-11-19T12:32:50;19.80;73.20
12977;DHT22;6553;48.412;9.514;2023-11-19T12:35:15;19.80;73.10
12977;DHT22;6553;48.412;9.514;2023-11-19T12:37:46;19.70;73.10
12977;DHT22;6553;48.412;9.514;2023-11-19T12:40:21;19.80;73.20
12977;DHT22;6553;48.412;9.514;2023-11-19T12:42:52;19.80;73.20
12977;DHT22;6553;48.412;9.514;2023-11-19T12:45:19;19.80;73.20
12977;DHT22;6553;48.412;9.514;2023-11-19T12:47:47;19.80;73.20
12977;DHT22;6553;48.412;9.514;2023-11-19T12:50:16;19.80;73.30
12977;DHT22;6553;48.412;9.514;2023-11-19T12:52:57;19.80;73.30
12977;DHT22;6553;48.412;9.514;2023-11-19T12:55:25;19.80;73.20
12977;DHT22;6553;48.412;9.514;2023-11-19T12:57:53;19.80;73.30
12977;DHT22;6553;48.412;9.514;2023-11-19T13:00:22;19.80;73.40
12977;DHT22;6553;48.412;9.514;2023-11-19T13:02:50;19.80;73.40
12977;DHT22;6553;48.412;9.514;2023-11-19T13:05:29;19.80;73.30
12977;DHT22;6553;48.412;9.514;2023-11-19T13:08:05;19.80;73.40
12977;DHT22;6553;48.412;9.514;2023-11-19T13:10:53;19.80;73.40
12977;DHT22;6553;48.412;9.514;2023-11-19T13:13:20;19.80;73.40
12977;DHT22;6553;48.412;9.514;2023-11-19T13:15:46;19.70;73.30
12977;DHT22;6553;48.412;9.514;2023-11-19T13:18:12;19.70;73.20
12977;DHT22;6553;48.412;9.514;2023-11-19T13:20:39;19.80;73.40
12977;DHT22;6553;48.412;9.514;2023-11-19T13:23:06;19.80;73.40
12977;DHT22;6553;48.412;9.514;2023-11-19T13:25:36;19.80;73.40
12977;DHT22;6553;48.412;9.514;2023-11-19T13:28:02;19.80;73.40
12977;DHT22;6553;48.412;9.514;2023-11-19T13:30:28;19.80;73.40
12977;DHT22;6553;48.412;9.514;2023-11-19T13:32:54;19.80;73.40
12977;DHT22;6553;48.412;9.514;2023-11-19T13:35:21;19.80;73.40
12977;DHT22;6553;48.412;9.514;2023-11-19T13:37:47;19.80;73.40
12977;DHT22;6553;48.412;9.514;2023-11-19T13:40:13;19.80;73.40
12977;DHT22;6553;48.412;9.514;2023-11-19T13:42:44;19.80;73.40
12977;DHT22;6553;48.412;9.514;2023-11-19T13:45:14;19.80;73.40
12977;DHT22;6553;48.412;9.514;2023-11-19T13:47:42;19.80;73.40
12977;DHT22;6553;48.412;9.514;2023-11-19T13:50:13;19.80;73.40
12977;DHT22;6553;48.412;9.514;2023-11-19T13:52:42;19.80;73.40
12977;DHT22;6553;48.412;9.514;2023-11-19T13:55:10;19.80;73.40
12977;DHT22;6553;48.412;9.514;2023-11-19T13:57:38;19.80;73.40
12977;DHT22;6553;48.412;9.514;2023-11-19T14:00:05;19.80;73.40
12977;DHT22;6553;48.412;9.514;2023-11-19T14:02:36;19.80;73.40
12977;DHT22;6553;48.412;9.514;2023-11-19T14:05:02;19.80;73.40
12977;DHT22;6553;48.412;9.514;2023-11-19T14:07:28;19.80;73.40
12977;DHT22;6553;48.412;9.514;2023-11-19T14:09:54;19.80;73.40
12977;DHT22;6553;48.412;9.514;2023-11-19T14:12:20;19.80;73.40
12977;DHT22;6553;48.412;9.514;2023-11-19T14:14:46;19.80;73.50
12977;DHT22;6553;48.412;9.514;2023-11-19T14:17:11;19.80;73.50
12977;DHT22;6553;48.412;9.514;2023-11-19T14:19:38;19.80;73.50
12977;DHT22;6553;48.412;9.514;2023-11-19T14:22:05;19.80;73.50
12977;DHT22;6553;48.412;9.514;2023-11-19T14:24:31;19.80;73.50
12977;DHT22;6553;48.412;9.514;2023-11-19T14:26:57;19.80;73.50
12977;DHT22;6553;48.412;9.514;2023-11-19T14:29:26;19.80;73.50
12977;DHT22;6553;48.412;9.514;2023-11-19T14:31:53;19.80;73.50
12977;DHT22;6553;48.412;9.514;2023-11-19T14:34:20;19.80;73.50
12977;DHT22;6553;48.412;9.514;2023-11-19T14:36:46;19.80;73.50
12977;DHT22;6553;48.412;9.514;2023-11-19T14:39:12;19.80;73.50
12977;DHT22;6553;48.412;9.514;2023-11-19T14:41:38;19.80;73.60
12977;DHT22;6553;48.412;9.514;2023-11-19T14:44:04;19.80;73.60
12977;DHT22;6553;48.412;9.514;2023-11-19T14:46:31;19.80;73.60
12977;DHT22;6553;48.412;9.514;2023-11-19T14:48:57;19.80;73.50
12977;DHT22;6553;48.412;9.514;2023-11-19T14:51:23;19.80;73.50
12977;DHT22;6553;48.412;9.514;2023-11-19T14:53:48;19.80;73.60
12977;DHT22;6553;48.412;9.514;2023-11-19T14:56:14;19.80;73.50
12977;DHT22;6553;48.412;9.514;2023-11-19T14:58:40;19.80;73.50
12977;DHT22;6553;48.412;9.514;2023-11-19T15:01:06;19.80;73.60
12977;DHT22;6553;48.412;9.514;2023-11-19T15:03:33;19.80;73.60
12977;DHT22;6553;48.412;9.514;2023-11-19T15:05:58;19.80;73.60
12977;DHT22;6553;48.412;9.514;2023-11-19T15:08:25;19.80;73.60
12977;DHT22;6553;48.412;9.514;2023-11-19T15:10:51;19.80;73.60
12977;DHT22;6553;48.412;9.514;2023-11-19T15:13:16;19.80;73.60
12977;DHT22;6553;48.412;9.514;2023-11-19T15:15:42;19.80;73.70
12977;DHT22;6553;48.412;9.514;2023-11-19T15:18:08;19.70;73.60
12977;DHT22;6553;48.412;9.514;2023-11-19T15:20:35;19.80;73.70
12977;DHT22;6553;48.412;9.514;2023-11-19T15:23:01;19.80;73.60
12977;DHT22;6553;48.412;9.514;2023-11-19T15:25:27;19.80;73.60
12977;DHT22;6553;48.412;9.514;2023-11-19T15:27:53;19.80;73.60
12977;DHT22;6553;48.412;9.514;2023-11-19T15:30:18;19.80;73.60
12977;DHT22;6553;48.412;9.514;2023-11-19T15:32:44;19.80;73.60
12977;DHT22;6553;48.412;9.514;2023-11-19T15:35:10;19.70;73.50
12977;DHT22;6553;48.412;9.514;2023-11-19T15:37:37;19.70;73.60
12977;DHT22;6553;48.412;9.514;2023-11-19T15:40:06;19.70;73.60
12977;DHT22;6553;48.412;9.514;2023-11-19T15:42:36;19.70;73.60
12977;DHT22;6553;48.412;9.514;2023-11-19T15:45:02;19.70;73.50
12977;DHT22;6553;48.412;9.514;2023-11-19T15:47:33;19.80;73.60
12977;DHT22;6553;48.412;9.514;2023-11-19T15:50:01;19.70;73.50
12977;DHT22;6553;48.412;9.514;2023-11-19T15:52:30;19.70;73.60
12977;DHT22;6553;48.412;9.514;2023-11-19T15:54:56;19.70;74.30
12977;DHT22;6553;48.412;9.514;2023-11-19T15:57:22;19.70;74.30
12977;DHT22;6553;48.412;9.514;2023-11-19T15:59:48;19.70;73.60
12977;DHT22;6553;48.412;9.514;2023-11-19T16:02:14;19.70;73.60
12977;DHT22;6553;48.412;9.514;2023-11-19T16:04:41;19.70;73.50
12977;DHT22;6553;48.412;9.514;2023-11-19T16:07:07;19.70;73.50
12977;DHT22;6553;48.412;9.514;2023-11-19T16:09:32;19.70;73.50
12977;DHT22;6553;48.412;9.514;2023-11-19T16:11:59;19.70;73.50
12977;DHT22;6553;48.412;9.514;2023-11-19T16:14:25;19.70;73.60